الصفحة الرئيسية
METAR-TAF:

METAR-TAF

مطار :

كوالا ترغكانو, ماليزيا

دائرة عرض: 05-22-53N, خط طول: 103-06-17E, ارتفاع: 6 متر

مراقبة الطقس الحالي

تاريخ ووقت الإصدار 40 دقيقة قبل الساعة 00:00UTC
ريح 2 عقدةمن اتجاهات متغيرة
درجة الحرارة 27°درجة مئوية
الرطوبة 89%
ضغط 1007 hPa
الرؤية 10 كم أو أكثر
غيوم قليلة على ارتفاع 2000 قدم

METAR: WMKN 190000Z VRB02KT 9999 FEW020 27/25 Q1007

زمن: 08:40 (00:40 UTC)

توقعات

تاريخ ووقت الإصدار 1ساعة و 40 دقيقة قبل الساعة 23:00UTC
التوقعات صالحة من19 الساعة 00 UTC إلى 20 الساعة 00 UTC
ريح 4 عقدة من الجنوب/الجنوب الغربي
الرؤية 10 كم أو أكثر
غيوم قليلة على ارتفاع 1800 قدم
مؤقت
من 19 الساعة 09 UTC إلى 19 الساعة 13 UTC
الرؤية: 5000 متر
غيوم قليلة على ارتفاع 1700 قدم, مزنة ركامية.
عاصفة رعدية, مطر,

TAF: WMKN 182300Z 1900/2000 20004KT 9999 FEW018 TEMPO 1909/1913 5000 TSRA FEW017CB

أرصاد الطقس والتوقعات من أكثر من 4000 مطار (تقارير الطقس للمطار METAR والتنبؤ بالطقس بالمطارTAF).

المحطات المتاحة هي النقط الصفراء والحمراء على الخريطة.

حرك المؤشر فوق النقطة لمعرفة اسم المحطة.

ثم انقر لمعرفة أرصاد وتوقعات الطقس.

لتغيير الخارطة: اضغط على الأزرار الخضراء مع رمز الصليب الأسود للتكبير. على الزر الأخضر مع شرطة للتصغير، أو على الأسهم الخضراء للخرائط المجاورة.


METAR-TAF: